Terminal Aerodrome Forecast
Issued by NWS

Home | Current Version | Previous Version | Text Only | Print | Product List | Glossary On
Versions: 1 2 3 4 5 6 7 8 9 10 11 12 13 14 15 16 17 18 19 20 21 22 23 24 25 26 27 28 29 30 31 32 33
898
FTAK31 PANC 092339
TAFAVD
TAF
PAVD 092339Z 1000/1024 09005KT P6SM FEW040 SCT120
     FM100600 09010KT P6SM SCT050
     FM101800 10003KT P6SM VCSH SCT035 OVC060
     FM102200 09004KT 6SM -SN SCT020 OVC040
      AMD LTD TO CLD VIS AND WIND=

USA.gov is the U.S. government's official web portal to all federal, state and local government web resources and services.